Time;durP1;ratioP1;P1;durP2;ratioP2;P2;SDS_P1;SDS_P2;PMS_P1;PMS_P2;Temp;Humidity;BMP_temperature;BMP_pressure;BME280_temperature;BME280_humidity;BME280_pressure;Samples;Min_cycle;Max_cycle;Signal;HPM_P1;HPM_P2
2023/03/28 00:00:16;;;;;;;;;;;;;;;1.62;78.80;102643.81;5017348;28;19918;-72
2023/03/28 00:02:42;;;;;;;;;;;;;;;1.48;78.94;102648.81;5023393;28;19917;-72
2023/03/28 00:05:07;;;;;;;;;;;;;;;1.41;79.37;102652.59;5022764;28;20415;-72
2023/03/28 00:07:32;;;;;;;;;;;;;;;1.39;79.59;102644.81;5023214;28;19925;-73
2023/03/28 00:09:57;;;;;;;;;;;;;;;1.38;79.58;102645.72;5022645;28;19940;-73
2023/03/28 00:12:23;;;;;;;;;;;;;;;1.39;79.41;102636.97;5020868;28;19925;-73
2023/03/28 00:14:48;;;;;;;;;;;;;;;1.40;79.19;102646.50;5021688;28;19925;-73
2023/03/28 00:17:16;;;;;;;;;;;;;;;1.41;79.06;102645.59;5024830;28;20473;-72
2023/03/28 00:19:41;;;;;;;;;;;;;;;1.43;79.57;102648.16;5024107;28;20493;-72
2023/03/28 00:22:07;;;;;;;;;;;;;;;1.42;80.03;102649.06;5027985;28;19917;-73
2023/03/28 00:24:37;;;;;;;;;;;;;;;1.37;80.24;102651.03;5024325;28;19962;-72
2023/03/28 00:27:04;;;;;;;;;;;;;;;1.27;80.45;102650.59;5020080;28;19917;-72
2023/03/28 00:29:29;;;;;;;;;;;;;;;1.19;80.65;102645.69;5019550;28;19960;-73
2023/03/28 00:31:55;;;;;;;;;;;;;;;1.18;80.72;102645.75;5019553;28;19956;-73
2023/03/28 00:34:20;;;;;;;;;;;;;;;1.17;80.98;102644.91;5023175;28;19964;-72
2023/03/28 00:36:46;;;;;;;;;;;;;;;1.19;81.03;102648.31;5024147;28;19921;-73
2023/03/28 00:39:12;;;;;;;;;;;;;;;1.19;80.86;102653.53;5013454;28;20047;-73
2023/03/28 00:41:40;;;;;;;;;;;;;;;1.17;80.28;102646.69;5026632;28;19960;-73
2023/03/28 00:44:24;;;;;;;;;;;;;;;1.16;80.31;102644.97;5017029;28;20079;-73
2023/03/28 00:46:50;;;;;;;;;;;;;;;1.19;80.71;102652.69;5023701;28;20441;-73
2023/03/28 00:49:21;;;;;;;;;;;;;;;1.19;80.96;102655.31;5022060;28;19925;-73
2023/03/28 00:51:54;;;;;;;;;;;;;;;1.19;81.11;102652.69;5019702;28;19917;-73
2023/03/28 00:54:19;;;;;;;;;;;;;;;1.19;81.30;102653.53;5020570;28;19956;-73
2023/03/28 00:56:47;;;;;;;;;;;;;;;1.19;81.26;102647.47;5027440;28;20014;-73
2023/03/28 00:59:16;;;;;;;;;;;;;;;1.14;81.23;102655.47;5026139;28;19924;-73
2023/03/28 01:01:41;;;;;;;;;;;;;;;1.07;81.26;102647.97;5024189;28;20375;-73
2023/03/28 01:04:08;;;;;;;;;;;;;;;1.06;81.46;102647.13;5016734;28;19917;-73
2023/03/28 01:06:40;;;;;;;;;;;;;;;1.07;81.40;102650.59;5023687;28;19917;-73
2023/03/28 01:09:06;;;;;;;;;;;;;;;1.05;81.38;102652.41;5025885;28;19917;-72
2023/03/28 01:11:34;;;;;;;;;;;;;;;1.03;81.71;102649.88;5027596;28;20543;-73
2023/03/28 01:14:01;;;;;;;;;;;;;;;1.00;81.73;102649.16;5030474;28;19921;-73
2023/03/28 01:16:29;;;;;;;;;;;;;;;0.99;81.83;102647.44;5019697;28;19921;-73
2023/03/28 01:18:55;;;;;;;;;;;;;;;0.97;81.78;102649.28;5020980;28;19992;-73
2023/03/28 01:21:41;;;;;;;;;;;;;;;0.95;81.81;102644.13;5025104;28;19917;-73
2023/03/28 01:24:22;;;;;;;;;;;;;;;0.96;81.93;102637.13;5024662;28;19917;-73
2023/03/28 01:26:59;;;;;;;;;;;;;;;0.92;81.76;102629.41;5019760;28;19925;-73
2023/03/28 01:29:43;;;;;;;;;;;;;;;0.91;82.16;102624.25;5017641;28;20497;-73
2023/03/28 01:32:33;;;;;;;;;;;;;;;0.90;82.25;102631.25;5021676;28;19917;-73
2023/03/28 01:35:17;;;;;;;;;;;;;;;0.89;82.16;102632.16;5020538;28;19921;-73
2023/03/28 01:37:54;;;;;;;;;;;;;;;0.87;82.35;102640.97;5024046;28;20352;-72
2023/03/28 01:40:45;;;;;;;;;;;;;;;0.83;82.51;102637.63;5026726;28;20396;-73
2023/03/28 01:43:40;;;;;;;;;;;;;;;0.82;82.53;102637.69;5020321;28;19963;-73
2023/03/28 01:46:16;;;;;;;;;;;;;;;0.79;82.43;102637.81;5013828;28;19924;-73
2023/03/28 01:48:50;;;;;;;;;;;;;;;0.80;81.97;102629.91;5023326;28;19913;-73
2023/03/28 01:51:33;;;;;;;;;;;;;;;0.80;81.78;102621.19;5025008;28;20024;-73
2023/03/28 01:54:03;;;;;;;;;;;;;;;0.77;81.60;102627.41;5019707;28;20410;-73
2023/03/28 01:56:29;;;;;;;;;;;;;;;0.76;81.42;102619.63;5020918;28;19921;-73
2023/03/28 01:59:02;;;;;;;;;;;;;;;0.72;81.24;102621.53;5024599;28;19925;-73
2023/03/28 02:01:35;;;;;;;;;;;;;;;0.70;81.17;102618.13;5028639;28;20398;-73
2023/03/28 02:04:03;;;;;;;;;;;;;;;0.67;81.02;102623.50;5017472;28;19971;-73
2023/03/28 02:06:29;;;;;;;;;;;;;;;0.66;81.23;102621.78;5023355;28;20549;-73
2023/03/28 02:08:56;;;;;;;;;;;;;;;0.65;81.44;102622.69;5025979;28;19960;-73
2023/03/28 02:11:23;;;;;;;;;;;;;;;0.65;82.00;102622.69;5028464;28;19925;-73
2023/03/28 02:13:52;;;;;;;;;;;;;;;0.64;82.25;102623.63;5035509;28;19974;-73
2023/03/28 02:16:21;;;;;;;;;;;;;;;0.60;82.49;102619.44;5019848;28;19921;-73
2023/03/28 02:18:50;;;;;;;;;;;;;;;0.56;82.94;102620.44;5018450;28;19928;-73
2023/03/28 02:21:17;;;;;;;;;;;;;;;0.51;82.97;102625.00;5023723;28;19917;-73
2023/03/28 02:23:46;;;;;;;;;;;;;;;0.41;83.32;102619.31;5024958;28;19960;-73
2023/03/28 02:26:11;;;;;;;;;;;;;;;0.35;83.50;102623.94;5024177;28;20406;-73
2023/03/28 02:28:37;;;;;;;;;;;;;;;0.29;83.61;102615.44;5033062;28;20000;-73
2023/03/28 02:31:04;;;;;;;;;;;;;;;0.30;83.82;102622.38;5031872;28;20326;-73
2023/03/28 02:33:29;;;;;;;;;;;;;;;0.31;84.04;102612.75;5028700;28;19913;-73
2023/03/28 02:36:07;;;;;;;;;;;;;;;0.31;84.22;102615.38;5021305;28;19921;-73
2023/03/28 02:38:32;;;;;;;;;;;;;;;0.32;84.43;102614.47;5024364;28;19928;-73
2023/03/28 02:41:16;;;;;;;;;;;;;;;0.33;84.36;102618.78;5021271;28;19917;-73
2023/03/28 02:43:53;;;;;;;;;;;;;;;0.34;84.27;102617.00;5023629;28;19917;-73
2023/03/28 02:46:18;;;;;;;;;;;;;;;0.34;84.62;102614.41;5022580;28;20367;-73
2023/03/28 02:48:52;;;;;;;;;;;;;;;0.37;84.35;102622.13;5023600;28;20401;-73
2023/03/28 02:51:39;;;;;;;;;;;;;;;0.35;84.28;102611.72;5020452;28;19925;-73
2023/03/28 02:54:04;;;;;;;;;;;;;;;0.37;84.03;102611.66;5025881;28;19918;-73
2023/03/28 02:56:35;;;;;;;;;;;;;;;0.39;84.08;102618.53;5028784;28;20007;-73
2023/03/28 02:59:06;;;;;;;;;;;;;;;0.39;83.96;102610.69;5027004;28;20346;-73
2023/03/28 03:01:32;;;;;;;;;;;;;;;0.39;83.70;102612.44;5027955;28;20421;-73
2023/03/28 03:03:59;;;;;;;;;;;;;;;0.39;83.39;102607.22;5022284;28;20007;-73
2023/03/28 03:06:24;;;;;;;;;;;;;;;0.38;83.18;102605.53;5024041;28;19924;-73
2023/03/28 03:08:50;;;;;;;;;;;;;;;0.35;82.99;102601.28;5025781;28;19917;-73
2023/03/28 03:11:15;;;;;;;;;;;;;;;0.34;83.02;102604.81;5026167;28;20003;-73
2023/03/28 03:13:42;;;;;;;;;;;;;;;0.33;82.96;102603.09;5024523;28;19963;-73
2023/03/28 03:16:07;;;;;;;;;;;;;;;0.32;83.21;102617.06;5026255;28;19929;-73
2023/03/28 03:18:33;;;;;;;;;;;;;;;0.30;83.53;102611.91;5019447;28;19924;-73
2023/03/28 03:21:00;;;;;;;;;;;;;;;0.25;83.84;102602.53;5021885;28;19917;-73
2023/03/28 03:23:25;;;;;;;;;;;;;;;0.21;84.00;102611.41;5015209;28;20059;-73
2023/03/28 03:25:51;;;;;;;;;;;;;;;0.20;84.16;102613.16;5025666;28;20012;-73
2023/03/28 03:28:17;;;;;;;;;;;;;;;0.18;84.43;102608.91;5029040;28;19917;-73
2023/03/28 03:30:42;;;;;;;;;;;;;;;0.21;84.31;102619.25;5026485;28;19924;-73
2023/03/28 03:33:13;;;;;;;;;;;;;;;0.20;84.32;102610.56;5029602;28;20000;-73
2023/03/28 03:35:40;;;;;;;;;;;;;;;0.15;84.53;102609.88;5018226;28;19922;-73
2023/03/28 03:38:06;;;;;;;;;;;;;;;0.07;84.60;102616.34;5024385;28;20338;-73
2023/03/28 03:40:31;;;;;;;;;;;;;;;0.05;84.61;102612.94;5017073;28;19917;-73
2023/03/28 03:42:56;;;;;;;;;;;;;;;0.06;84.50;102619.84;5024011;28;19959;-73
2023/03/28 03:45:21;;;;;;;;;;;;;;;0.08;84.43;102605.81;5019474;28;21274;-73
2023/03/28 03:47:46;;;;;;;;;;;;;;;0.10;84.49;102614.44;5028965;28;19924;-73
2023/03/28 03:50:12;;;;;;;;;;;;;;;0.13;84.50;102614.31;5015268;28;19960;-73
2023/03/28 03:52:38;;;;;;;;;;;;;;;0.14;84.74;102612.56;5023730;28;20598;-73
2023/03/28 03:55:03;;;;;;;;;;;;;;;0.13;84.75;102598.66;5022928;28;19921;-73
2023/03/28 03:57:28;;;;;;;;;;;;;;;0.13;84.77;102614.31;5018928;28;19924;-73
2023/03/28 03:59:56;;;;;;;;;;;;;;;0.12;84.77;102610.00;5022573;28;19917;-73
2023/03/28 04:02:21;;;;;;;;;;;;;;;0.11;84.97;102610.91;5027363;28;19917;-73
2023/03/28 04:04:46;;;;;;;;;;;;;;;0.06;85.00;102604.19;5021452;28;19925;-73
2023/03/28 04:07:12;;;;;;;;;;;;;;;0.04;84.85;102609.47;5025068;28;20000;-73
2023/03/28 04:09:37;;;;;;;;;;;;;;;0.01;84.82;102601.75;5025479;28;19917;-73
2023/03/28 04:12:03;;;;;;;;;;;;;;;0.03;84.97;102609.53;5022367;28;19974;-73
2023/03/28 04:14:28;;;;;;;;;;;;;;;0.03;84.86;102602.53;5020494;28;19921;-73
2023/03/28 04:16:53;;;;;;;;;;;;;;;0.05;84.88;102608.56;5023629;28;19928;-73
2023/03/28 04:19:19;;;;;;;;;;;;;;;0.06;85.11;102614.63;5017659;28;19967;-73
2023/03/28 04:21:46;;;;;;;;;;;;;;;0.06;85.31;102604.19;4998934;28;20362;-73
2023/03/28 04:24:14;;;;;;;;;;;;;;;0.03;85.44;102602.53;5027416;28;20318;-73
2023/03/28 04:26:39;;;;;;;;;;;;;;;0.05;85.37;102605.94;5028662;28;20024;-73
2023/03/28 04:29:05;;;;;;;;;;;;;;;0.05;85.19;102603.34;5025669;28;20011;-73
2023/03/28 04:31:34;;;;;;;;;;;;;;;0.04;84.97;102600.78;5027840;28;20390;-73
2023/03/28 04:34:02;;;;;;;;;;;;;;;0.02;84.69;102602.59;5027577;28;20565;-73
2023/03/28 04:36:28;;;;;;;;;;;;;;;0.01;84.64;102600.91;5019409;28;20012;-73
2023/03/28 04:38:57;;;;;;;;;;;;;;;-0.02;84.82;102597.47;5019604;28;20000;-73
2023/03/28 04:41:22;;;;;;;;;;;;;;;-0.01;84.63;102595.72;5025921;28;19917;-73
2023/03/28 04:43:47;;;;;;;;;;;;;;;-0.03;84.51;102601.00;5016031;28;20329;-72
2023/03/28 04:46:12;;;;;;;;;;;;;;;-0.04;84.78;102595.84;5028913;28;20015;-73
2023/03/28 04:48:37;;;;;;;;;;;;;;;-0.06;84.92;102590.66;5017555;28;19955;-73
2023/03/28 04:51:03;;;;;;;;;;;;;;;-0.06;84.75;102598.50;5021564;28;19917;-73
2023/03/28 04:53:28;;;;;;;;;;;;;;;-0.08;84.66;102599.47;5022383;28;20310;-73
2023/03/28 04:55:53;;;;;;;;;;;;;;;-0.08;84.56;102607.31;5020336;28;20011;-73
2023/03/28 04:58:20;;;;;;;;;;;;;;;-0.08;84.73;102599.47;5021270;28;19925;-73
2023/03/28 05:00:45;;;;;;;;;;;;;;;-0.07;84.55;102588.13;5022047;28;19921;-73
2023/03/28 05:03:17;;;;;;;;;;;;;;;-0.06;84.60;102601.13;5020546;28;20375;-73
2023/03/28 05:05:42;;;;;;;;;;;;;;;-0.08;84.86;102607.31;5025931;28;19921;-73
2023/03/28 05:08:07;;;;;;;;;;;;;;;-0.12;85.38;102610.94;5020525;28;19963;-73
2023/03/28 05:10:33;;;;;;;;;;;;;;;-0.15;85.67;102605.84;5017661;28;19955;-73
2023/03/28 05:12:58;;;;;;;;;;;;;;;-0.16;85.89;102615.44;5024193;28;19971;-74
2023/03/28 05:15:23;;;;;;;;;;;;;;;-0.19;86.24;102614.72;5025532;28;20386;-73
2023/03/28 05:17:49;;;;;;;;;;;;;;;-0.21;86.28;102620.00;5024512;28;20408;-73
2023/03/28 05:20:15;;;;;;;;;;;;;;;-0.20;86.46;102628.66;5018287;28;19925;-73
2023/03/28 05:22:41;;;;;;;;;;;;;;;-0.20;86.65;102620.84;5023717;28;20045;-72
2023/03/28 05:25:07;;;;;;;;;;;;;;;-0.21;86.78;102619.13;5019491;28;20398;-73
2023/03/28 05:27:32;;;;;;;;;;;;;;;-0.21;86.83;102620.00;5024431;28;19940;-73
2023/03/28 05:29:58;;;;;;;;;;;;;;;-0.17;86.63;102623.34;5022700;28;20006;-73
2023/03/28 05:32:23;;;;;;;;;;;;;;;-0.15;86.79;102622.38;5018265;28;19983;-73
2023/03/28 05:34:48;;;;;;;;;;;;;;;-0.12;86.77;102621.41;5027532;28;19955;-73
2023/03/28 05:37:14;;;;;;;;;;;;;;;-0.11;86.93;102625.72;5022621;28;19917;-73
2023/03/28 05:39:39;;;;;;;;;;;;;;;-0.09;87.08;102631.72;5012748;28;20000;-73
2023/03/28 05:42:04;;;;;;;;;;;;;;;-0.10;87.13;102630.03;5017598;28;20047;-73
2023/03/28 05:44:29;;;;;;;;;;;;;;;-0.10;87.10;102627.41;5020051;28;20370;-73
2023/03/28 05:46:55;;;;;;;;;;;;;;;-0.09;87.14;102629.97;5015332;28;20326;-73
2023/03/28 05:49:20;;;;;;;;;;;;;;;-0.12;87.15;102626.63;5021373;28;20390;-73
2023/03/28 05:51:45;;;;;;;;;;;;;;;-0.13;87.31;102633.59;5020297;28;19917;-73
2023/03/28 05:54:10;;;;;;;;;;;;;;;-0.13;87.29;102635.34;5023365;28;20391;-73
2023/03/28 05:56:36;;;;;;;;;;;;;;;-0.13;87.49;102630.13;5021485;28;19929;-73
2023/03/28 05:59:02;;;;;;;;;;;;;;;-0.13;87.50;102627.53;5028228;28;20374;-73
2023/03/28 06:01:27;;;;;;;;;;;;;;;-0.11;87.53;102630.94;5024523;28;19914;-73
2023/03/28 06:03:53;;;;;;;;;;;;;;;-0.08;87.55;102623.81;5022156;28;20588;-73
2023/03/28 06:06:19;;;;;;;;;;;;;;;0.01;87.79;102627.03;5014630;28;19917;-73
2023/03/28 06:08:44;;;;;;;;;;;;;;;0.06;87.91;102627.69;5022617;28;20015;-73
2023/03/28 06:11:10;;;;;;;;;;;;;;;0.08;88.10;102625.88;5024858;28;19944;-74
2023/03/28 06:13:35;;;;;;;;;;;;;;;0.12;88.17;102617.00;5023199;28;19917;-73
2023/03/28 06:16:01;;;;;;;;;;;;;;;0.16;88.10;102632.50;5020210;28;19996;-73
2023/03/28 06:18:26;;;;;;;;;;;;;;;0.19;88.31;102624.53;5022801;28;19921;-73
2023/03/28 06:20:51;;;;;;;;;;;;;;;0.23;88.34;102625.25;5018958;28;19917;-73
2023/03/28 06:23:16;;;;;;;;;;;;;;;0.26;88.47;102623.38;5016498;28;20026;-73
2023/03/28 06:25:42;;;;;;;;;;;;;;;0.27;88.45;102622.47;5020567;28;19941;-73
2023/03/28 06:28:07;;;;;;;;;;;;;;;0.33;88.57;102624.00;5020716;28;19960;-73
2023/03/28 06:30:32;;;;;;;;;;;;;;;0.38;88.56;102631.66;5014826;28;19921;-73
2023/03/28 06:32:57;;;;;;;;;;;;;;;0.45;88.43;102631.34;5023702;28;19913;-73
2023/03/28 06:35:23;;;;;;;;;;;;;;;0.57;88.69;102635.22;5024951;28;19948;-73
2023/03/28 06:37:48;;;;;;;;;;;;;;;0.67;88.58;102630.47;5012579;28;19940;-73
2023/03/28 06:40:13;;;;;;;;;;;;;;;0.75;88.60;102642.31;5020090;28;20000;-73
2023/03/28 06:42:38;;;;;;;;;;;;;;;0.80;88.53;102642.13;5022789;28;19947;-73
2023/03/28 06:45:03;;;;;;;;;;;;;;;0.85;88.39;102643.63;5022390;28;19913;-73
2023/03/28 06:47:29;;;;;;;;;;;;;;;0.89;88.43;102639.16;5024434;28;19960;-73
2023/03/28 06:49:54;;;;;;;;;;;;;;;0.91;88.18;102635.56;5012774;28;19921;-73
2023/03/28 06:52:21;;;;;;;;;;;;;;;0.92;88.17;102639.88;5020098;28;19916;-73
2023/03/28 06:54:46;;;;;;;;;;;;;;;0.93;88.10;102635.50;5014273;28;19990;-73
2023/03/28 06:57:11;;;;;;;;;;;;;;;0.96;88.06;102639.72;5009937;28;19960;-73
2023/03/28 06:59:37;;;;;;;;;;;;;;;1.01;88.01;102641.22;5017882;28;19921;-73
2023/03/28 07:02:02;;;;;;;;;;;;;;;1.04;88.00;102648.94;5015214;28;19917;-73
2023/03/28 07:04:27;;;;;;;;;;;;;;;1.07;87.88;102647.97;5029845;28;20025;-73
2023/03/28 07:06:52;;;;;;;;;;;;;;;1.08;87.95;102650.53;5025420;28;20433;-73
2023/03/28 07:09:17;;;;;;;;;;;;;;;1.13;87.95;102652.94;5028857;28;20392;-73
2023/03/28 07:11:42;;;;;;;;;;;;;;;1.15;87.87;102651.94;5024774;28;19921;-73
2023/03/28 07:14:08;;;;;;;;;;;;;;;1.22;87.87;102652.56;5022714;28;19920;-73
2023/03/28 07:16:33;;;;;;;;;;;;;;;1.24;87.79;102650.72;5030680;28;20463;-73
2023/03/28 07:18:58;;;;;;;;;;;;;;;1.27;87.67;102649.75;5028179;28;19979;-73
2023/03/28 07:21:23;;;;;;;;;;;;;;;1.33;87.84;102650.31;5021052;28;19929;-73
2023/03/28 07:23:48;;;;;;;;;;;;;;;1.37;87.84;102651.03;5019049;28;19913;-73
2023/03/28 07:26:14;;;;;;;;;;;;;;;1.43;87.40;102651.63;5026333;28;20000;-73
2023/03/28 07:28:39;;;;;;;;;;;;;;;1.50;87.66;102657.44;5019148;28;19937;-73
2023/03/28 07:31:05;;;;;;;;;;;;;;;1.58;87.58;102660.56;5017620;28;19939;-74
2023/03/28 07:33:31;;;;;;;;;;;;;;;1.66;87.45;102663.69;5022988;28;19936;-73
2023/03/28 07:35:56;;;;;;;;;;;;;;;1.74;87.43;102650.28;5021672;28;19921;-73
2023/03/28 07:38:21;;;;;;;;;;;;;;;1.84;87.27;102655.03;5022993;28;20008;-73
2023/03/28 07:40:46;;;;;;;;;;;;;;;1.99;87.45;102663.09;5028895;28;20389;-73
2023/03/28 07:43:12;;;;;;;;;;;;;;;2.08;87.21;102658.28;5023750;28;19921;-73
2023/03/28 07:45:37;;;;;;;;;;;;;;;2.22;87.02;102651.53;5026343;28;19950;-73
2023/03/28 07:48:03;;;;;;;;;;;;;;;2.36;86.68;102654.38;5022239;28;19925;-73
2023/03/28 07:50:28;;;;;;;;;;;;;;;2.51;86.53;102665.88;5024560;28;19999;-73
2023/03/28 07:52:56;;;;;;;;;;;;;;;2.60;86.22;102658.44;5016472;28;19919;-74
2023/03/28 07:55:22;;;;;;;;;;;;;;;2.74;86.23;102657.75;5026356;28;19913;-74
2023/03/28 07:57:47;;;;;;;;;;;;;;;2.87;85.75;102652.75;5020469;28;19917;-73
2023/03/28 08:00:12;;;;;;;;;;;;;;;2.97;85.21;102657.47;5025050;28;19996;-73
2023/03/28 08:02:38;;;;;;;;;;;;;;;3.08;84.53;102655.16;5025542;28;19913;-74
2023/03/28 08:05:03;;;;;;;;;;;;;;;3.18;83.98;102652.06;5025374;28;19928;-75
2023/03/28 08:07:29;;;;;;;;;;;;;;;3.26;82.88;102652.53;5014151;28;20303;-73
2023/03/28 08:09:54;;;;;;;;;;;;;;;3.36;81.95;102649.34;5018380;28;19917;-74
2023/03/28 08:12:20;;;;;;;;;;;;;;;3.47;81.57;102659.31;5023559;28;20052;-73
2023/03/28 08:14:45;;;;;;;;;;;;;;;3.63;81.62;102654.94;5025599;28;20298;-74
2023/03/28 08:17:10;;;;;;;;;;;;;;;3.80;81.21;102659.31;5019098;28;19917;-73
2023/03/28 08:19:35;;;;;;;;;;;;;;;3.89;80.00;102653.53;5026720;28;19917;-74
2023/03/28 08:22:01;;;;;;;;;;;;;;;3.94;79.26;102654.13;5024199;28;19917;-73
2023/03/28 08:24:26;;;;;;;;;;;;;;;4.09;78.98;102651.63;5025437;28;19913;-74
2023/03/28 08:26:51;;;;;;;;;;;;;;;4.16;77.58;102651.19;5018520;28;19917;-73
2023/03/28 08:29:17;;;;;;;;;;;;;;;4.20;77.37;102654.50;5018439;28;19975;-73
2023/03/28 08:31:42;;;;;;;;;;;;;;;4.23;76.83;102652.53;5029349;28;20004;-74
2023/03/28 08:34:07;;;;;;;;;;;;;;;4.26;76.39;102656.78;5028123;28;19999;-73
2023/03/28 08:36:33;;;;;;;;;;;;;;;4.31;76.41;102644.22;5026455;28;19944;-73
2023/03/28 08:39:03;;;;;;;;;;;;;;;4.43;76.43;102645.34;5023171;28;19960;-73
2023/03/28 08:41:39;;;;;;;;;;;;;;;4.50;75.81;102649.31;5019011;28;19917;-74
2023/03/28 08:44:13;;;;;;;;;;;;;;;4.57;75.07;102637.50;5019350;28;20394;-73
2023/03/28 08:46:41;;;;;;;;;;;;;;;4.66;74.53;102639.63;5022221;28;19917;-73
2023/03/28 08:49:10;;;;;;;;;;;;;;;4.71;73.63;102640.19;5024467;28;19914;-73
2023/03/28 08:51:39;;;;;;;;;;;;;;;4.81;73.53;102641.34;5012325;28;19918;-73
2023/03/28 08:54:10;;;;;;;;;;;;;;;4.82;72.48;102643.03;5020435;28;20475;-73
2023/03/28 08:56:40;;;;;;;;;;;;;;;4.85;72.33;102639.38;5019812;28;19924;-73
2023/03/28 08:59:14;;;;;;;;;;;;;;;4.91;71.87;102646.91;5026546;28;19976;-74
2023/03/28 09:01:39;;;;;;;;;;;;;;;4.92;70.88;102635.47;5023026;28;20302;-74
2023/03/28 09:04:05;;;;;;;;;;;;;;;4.90;69.72;102639.94;5023809;28;19917;-73
2023/03/28 09:06:39;;;;;;;;;;;;;;;4.89;69.53;102636.47;5021002;28;19913;-73
2023/03/28 09:09:10;;;;;;;;;;;;;;;4.96;69.64;102637.00;5024792;28;19917;-74
2023/03/28 09:11:41;;;;;;;;;;;;;;;5.04;70.04;102629.47;5021555;28;19913;-74
2023/03/28 09:14:09;;;;;;;;;;;;;;;5.12;69.52;102640.41;5012206;28;19914;-74
2023/03/28 09:16:52;;;;;;;;;;;;;;;5.13;69.72;102628.91;5021260;28;19971;-73
2023/03/28 09:19:36;;;;;;;;;;;;;;;5.12;68.23;102631.66;5025756;28;19924;-74
2023/03/28 09:22:21;;;;;;;;;;;;;;;5.09;67.87;102627.41;5022027;28;20513;-73
2023/03/28 09:25:02;;;;;;;;;;;;;;;5.16;68.49;102636.63;5022905;28;20902;-74
2023/03/28 09:27:32;;;;;;;;;;;;;;;5.19;68.25;102627.69;5025843;28;19924;-74
2023/03/28 09:30:04;;;;;;;;;;;;;;;5.27;67.73;102639.50;5026467;28;19917;-73
2023/03/28 09:32:33;;;;;;;;;;;;;;;5.23;66.52;102632.72;5019963;28;19913;-74
2023/03/28 09:34:58;;;;;;;;;;;;;;;5.22;66.37;102615.22;5029164;28;19917;-73
2023/03/28 09:37:28;;;;;;;;;;;;;;;5.18;66.31;102623.38;5018658;28;19945;-74
2023/03/28 09:39:54;;;;;;;;;;;;;;;5.17;65.90;102614.63;5025614;28;20483;-74
2023/03/28 09:42:22;;;;;;;;;;;;;;;5.21;65.73;102612.69;5006050;28;19925;-73
2023/03/28 09:45:07;;;;;;;;;;;;;;;5.22;65.13;102617.00;5017380;28;19921;-75
2023/03/28 09:47:33;;;;;;;;;;;;;;;5.21;64.46;102610.06;5014726;28;19916;-74
2023/03/28 09:49:58;;;;;;;;;;;;;;;5.22;64.38;102609.09;5024856;28;20378;-73
2023/03/28 09:52:23;;;;;;;;;;;;;;;5.27;64.05;102605.25;5008966;28;20012;-75
2023/03/28 09:54:49;;;;;;;;;;;;;;;5.34;64.27;102600.44;5024522;28;19936;-73
2023/03/28 09:57:14;;;;;;;;;;;;;;;5.43;64.28;102594.63;5018763;28;20034;-74
2023/03/28 09:59:39;;;;;;;;;;;;;;;5.49;64.69;102593.38;5022840;28;20375;-73
2023/03/28 10:02:22;;;;;;;;;;;;;;;5.55;65.01;102593.03;5015215;28;19924;-73
2023/03/28 10:04:47;;;;;;;;;;;;;;;5.60;63.73;102581.25;5021268;28;20420;-73
2023/03/28 10:07:12;;;;;;;;;;;;;;;5.62;63.52;102586.44;5021517;28;19921;-73
2023/03/28 10:09:48;;;;;;;;;;;;;;;5.61;63.06;102576.81;5021645;28;19924;-73
2023/03/28 10:12:18;;;;;;;;;;;;;;;5.66;62.93;102580.03;5022499;28;19924;-73
2023/03/28 10:14:45;;;;;;;;;;;;;;;5.65;62.23;102580.97;5023165;28;20381;-73
2023/03/28 10:17:13;;;;;;;;;;;;;;;5.63;62.42;102569.66;5028244;28;20291;-73
2023/03/28 10:19:42;;;;;;;;;;;;;;;5.60;61.97;102570.72;5030409;28;20306;-73
2023/03/28 10:22:12;;;;;;;;;;;;;;;5.56;61.79;102560.47;5021207;28;19971;-73
2023/03/28 10:24:38;;;;;;;;;;;;;;;5.61;62.10;102566.28;5019386;28;19974;-73
2023/03/28 10:27:06;;;;;;;;;;;;;;;5.77;63.15;102561.72;5023291;28;19925;-73
2023/03/28 10:29:32;;;;;;;;;;;;;;;5.87;62.39;102554.09;5022474;28;19971;-73
2023/03/28 10:31:57;;;;;;;;;;;;;;;5.92;61.86;102562.59;5021657;28;19913;-73
2023/03/28 10:34:27;;;;;;;;;;;;;;;5.86;61.30;102553.25;5027605;28;19944;-74
2023/03/28 10:36:52;;;;;;;;;;;;;;;5.87;61.87;102551.47;5026714;28;19921;-73
2023/03/28 10:39:22;;;;;;;;;;;;;;;5.87;61.76;102547.03;5004186;28;19940;-73
2023/03/28 10:41:50;;;;;;;;;;;;;;;5.90;60.68;102527.56;5026007;28;20012;-73
2023/03/28 10:44:17;;;;;;;;;;;;;;;5.92;60.60;102528.31;5020704;28;19936;-72
2023/03/28 10:46:43;;;;;;;;;;;;;;;5.99;59.72;102529.59;5020822;28;19928;-73
2023/03/28 10:49:13;;;;;;;;;;;;;;;6.00;59.28;102527.81;5028197;28;19917;-74
2023/03/28 10:51:39;;;;;;;;;;;;;;;6.04;58.17;102526.66;5021476;28;19914;-74
2023/03/28 10:54:23;;;;;;;;;;;;;;;6.12;58.82;102529.66;5026644;28;20019;-75
2023/03/28 10:57:02;;;;;;;;;;;;;;;6.34;59.61;102527.28;5022955;28;20015;-73
2023/03/28 10:59:50;;;;;;;;;;;;;;;6.45;59.00;102514.25;5026483;28;19960;-73
2023/03/28 11:02:22;;;;;;;;;;;;;;;6.63;59.27;102498.09;5010835;28;20636;-73
2023/03/28 11:04:50;;;;;;;;;;;;;;;6.67;57.87;102504.88;5022126;28;19974;-67
2023/03/28 11:07:15;;;;;;;;;;;;;;;6.64;56.76;102505.91;5017012;28;20346;-71
2023/03/28 11:09:45;;;;;;;;;;;;;;;6.77;57.05;102495.38;5023589;28;19971;-70
2023/03/28 11:12:10;;;;;;;;;;;;;;;6.85;56.79;102487.75;5025650;28;19918;-71
2023/03/28 11:14:41;;;;;;;;;;;;;;;7.02;56.56;102486.59;5028267;28;19925;-71
2023/03/28 11:17:25;;;;;;;;;;;;;;;7.15;55.98;102484.78;5025799;28;19940;-71
2023/03/28 11:20:05;;;;;;;;;;;;;;;7.27;55.04;102480.44;5019739;28;19917;-71
2023/03/28 11:22:51;;;;;;;;;;;;;;;7.17;54.02;102485.50;5023042;28;19917;-72
2023/03/28 11:25:20;;;;;;;;;;;;;;;7.03;53.97;102465.38;5029541;28;19913;-71
2023/03/28 11:27:57;;;;;;;;;;;;;;;7.20;53.59;102465.97;5024662;28;19947;-71
2023/03/28 11:30:30;;;;;;;;;;;;;;;7.28;52.78;102461.84;5026709;28;19920;-71
2023/03/28 11:33:06;;;;;;;;;;;;;;;7.38;52.26;102459.38;5030480;28;20435;-71
2023/03/28 11:35:35;;;;;;;;;;;;;;;7.55;53.08;102455.53;5022042;28;19964;-71
2023/03/28 11:38:12;;;;;;;;;;;;;;;7.70;52.95;102455.22;5027884;28;19956;-71
2023/03/28 11:40:40;;;;;;;;;;;;;;;7.76;51.69;102460.06;5025181;28;19925;-70
2023/03/28 11:43:08;;;;;;;;;;;;;;;7.86;51.82;102454.97;5015594;28;19921;-71
2023/03/28 11:45:39;;;;;;;;;;;;;;;7.83;51.04;102460.50;5021148;28;20004;-70
2023/03/28 11:48:11;;;;;;;;;;;;;;;7.65;50.57;102444.16;5021599;28;20074;-71
2023/03/28 11:50:44;;;;;;;;;;;;;;;7.61;51.03;102429.47;5025765;28;19924;-71
2023/03/28 11:53:14;;;;;;;;;;;;;;;7.69;51.01;102418.34;5025651;28;19925;-70
2023/03/28 11:55:43;;;;;;;;;;;;;;;7.67;51.13;102399.94;5025429;28;19946;-71
2023/03/28 11:58:08;;;;;;;;;;;;;;;7.93;51.33;102410.38;5021982;28;20008;-71
2023/03/28 12:00:40;;;;;;;;;;;;;;;7.96;50.91;102399.56;5027543;28;20011;-71
2023/03/28 12:03:05;;;;;;;;;;;;;;;8.11;50.45;102395.78;5019854;28;19917;-71
2023/03/28 12:05:33;;;;;;;;;;;;;;;8.26;50.00;102394.59;5023279;28;20477;-71
2023/03/28 12:08:07;;;;;;;;;;;;;;;8.18;49.14;102386.41;5020532;28;20424;-71
2023/03/28 12:10:35;;;;;;;;;;;;;;;8.16;50.13;102383.03;5022143;28;19917;-72
2023/03/28 12:13:08;;;;;;;;;;;;;;;8.22;50.39;102371.13;5022389;28;19927;-71
2023/03/28 12:15:36;;;;;;;;;;;;;;;8.21;49.87;102382.69;5019215;28;20402;-70
2023/03/28 12:18:05;;;;;;;;;;;;;;;8.12;49.95;102371.00;5026107;28;19921;-71
2023/03/28 12:20:34;;;;;;;;;;;;;;;8.07;49.59;102368.69;5028117;28;19944;-71
2023/03/28 12:23:02;;;;;;;;;;;;;;;7.99;49.56;102363.13;5018171;28;19921;-71
2023/03/28 12:25:30;;;;;;;;;;;;;;;8.03;49.15;102346.06;5023996;28;20004;-71
2023/03/28 12:27:58;;;;;;;;;;;;;;;8.15;49.31;102339.00;5020717;28;20015;-72
2023/03/28 12:30:29;;;;;;;;;;;;;;;8.26;49.24;102341.66;5026532;28;20408;-71
2023/03/28 12:32:55;;;;;;;;;;;;;;;8.18;48.66;102333.47;5020338;28;20382;-70
2023/03/28 12:35:25;;;;;;;;;;;;;;;8.17;48.97;102330.97;5019647;28;20016;-71
2023/03/28 12:37:56;;;;;;;;;;;;;;;8.23;49.43;102326.03;5028145;28;19917;-71
2023/03/28 12:40:48;;;;;;;;;;;;;;;8.40;49.57;102334.50;5014801;28;19925;-71
2023/03/28 12:43:14;;;;;;;;;;;;;;;8.49;48.66;102339.91;5022841;28;19924;-71
2023/03/28 12:45:43;;;;;;;;;;;;;;;8.47;48.44;102327.75;5023459;28;19921;-71
2023/03/28 12:48:12;;;;;;;;;;;;;;;8.49;48.20;102337.25;5022742;28;20012;-71
2023/03/28 12:50:43;;;;;;;;;;;;;;;8.47;47.60;102338.34;5022155;28;19917;-72